Time;durP1;ratioP1;P1;durP2;ratioP2;P2;SDS_P1;SDS_P2;PMS_P1;PMS_P2;Temp;Humidity;BMP_temperature;BMP_pressure;BME280_temperature;BME280_humidity;BME280_pressure;Samples;Min_cycle;Max_cycle;Signal;HPM_P1;HPM_P2
2023/07/16 00:01:59;;;;;;;3.53;3.23;;;;;;;;;;5015831;28;20458;-57
2023/07/16 00:04:26;;;;;;;6.00;3.30;;;;;;;;;;5015746;28;20457;-57
2023/07/16 00:06:53;;;;;;;4.00;3.57;;;;;;;;;;5015616;28;20545;-58
2023/07/16 00:09:20;;;;;;;3.63;3.43;;;;;;;;;;5015749;28;20458;-57
2023/07/16 00:11:47;;;;;;;4.13;3.80;;;;;;;;;;5015619;28;20492;-58
2023/07/16 00:14:14;;;;;;;3.50;3.20;;;;;;;;;;5015457;28;20942;-57
2023/07/16 00:16:42;;;;;;;3.73;2.93;;;;;;;;;;5015519;28;20456;-58
2023/07/16 00:19:11;;;;;;;3.33;3.13;;;;;;;;;;5015445;28;20935;-58
2023/07/16 00:21:38;;;;;;;3.53;3.23;;;;;;;;;;5015662;28;20454;-57
2023/07/16 00:24:05;;;;;;;3.23;3.00;;;;;;;;;;5015540;28;20537;-57
2023/07/16 00:26:32;;;;;;;3.87;3.43;;;;;;;;;;5015379;28;20446;-58
2023/07/16 00:28:59;;;;;;;4.03;3.30;;;;;;;;;;5015201;28;20483;-59
2023/07/16 00:31:26;;;;;;;5.03;3.20;;;;;;;;;;5015147;28;20474;-57
2023/07/16 00:33:55;;;;;;;3.77;3.57;;;;;;;;;;5015042;28;20451;-58
2023/07/16 00:36:21;;;;;;;3.30;3.10;;;;;;;;;;5015291;28;20450;-58
2023/07/16 00:38:49;;;;;;;3.20;3.07;;;;;;;;;;5014293;28;20461;-58
2023/07/16 00:41:16;;;;;;;2.40;2.30;;;;;;;;;;5015240;28;20454;-58
2023/07/16 00:43:43;;;;;;;3.20;3.00;;;;;;;;;;5015030;28;20451;-57
2023/07/16 00:46:11;;;;;;;5.60;3.03;;;;;;;;;;5014918;28;20814;-58
2023/07/16 00:48:38;;;;;;;3.27;3.07;;;;;;;;;;5014796;28;20451;-57
2023/07/16 00:51:07;;;;;;;3.27;3.07;;;;;;;;;;5014936;28;20450;-58
2023/07/16 00:53:33;;;;;;;4.30;3.37;;;;;;;;;;5014883;28;20450;-57
2023/07/16 00:56:01;;;;;;;3.03;2.80;;;;;;;;;;5014315;28;20947;-57
2023/07/16 00:58:28;;;;;;;3.30;2.80;;;;;;;;;;5014782;28;20468;-57
2023/07/16 01:00:54;;;;;;;3.47;3.27;;;;;;;;;;5014601;28;20446;-58
2023/07/16 01:03:22;;;;;;;2.87;2.70;;;;;;;;;;5014543;28;20454;-57
2023/07/16 01:05:50;;;;;;;3.60;3.40;;;;;;;;;;5014725;28;20450;-57
2023/07/16 01:08:22;;;;;;;3.43;3.10;;;;;;;;;;5014625;28;20454;-57
2023/07/16 01:10:49;;;;;;;3.70;3.40;;;;;;;;;;5014572;28;20451;-57
2023/07/16 01:13:16;;;;;;;3.70;3.50;;;;;;;;;;5014370;28;20561;-57
2023/07/16 01:15:43;;;;;;;3.73;3.53;;;;;;;;;;5014315;28;20561;-57
2023/07/16 01:18:10;;;;;;;4.17;3.77;;;;;;;;;;5014451;28;20457;-57
2023/07/16 01:20:37;;;;;;;4.47;3.90;;;;;;;;;;5014460;28;21009;-57
2023/07/16 01:23:15;;;;;;;4.17;3.87;;;;;;;;;;5014290;28;20465;-57
2023/07/16 01:25:55;;;;;;;4.27;3.97;;;;;;;;;;5014261;28;20937;-57
2023/07/16 01:28:35;;;;;;;5.03;4.60;;;;;;;;;;5014139;28;20770;-58
2023/07/16 01:31:04;;;;;;;6.27;4.30;;;;;;;;;;5014256;28;20450;-58
2023/07/16 01:33:31;;;;;;;5.10;4.70;;;;;;;;;;5014104;28;20925;-58
2023/07/16 01:35:59;;;;;;;5.17;4.77;;;;;;;;;;5013992;28;21037;-58
2023/07/16 01:38:26;;;;;;;4.47;4.17;;;;;;;;;;5013915;28;20453;-58
2023/07/16 01:40:53;;;;;;;5.33;4.80;;;;;;;;;;5014136;28;20541;-58
2023/07/16 01:43:20;;;;;;;4.83;4.50;;;;;;;;;;5014059;28;20450;-58
2023/07/16 01:45:47;;;;;;;6.27;4.60;;;;;;;;;;5013940;28;20891;-58
2023/07/16 01:48:23;;;;;;;4.33;4.03;;;;;;;;;;5013840;28;20446;-58
2023/07/16 01:50:49;;;;;;;6.50;4.33;;;;;;;;;;5013616;28;20805;-58
2023/07/16 01:53:16;;;;;;;5.53;4.53;;;;;;;;;;5013838;28;20577;-58
2023/07/16 01:55:43;;;;;;;4.40;4.00;;;;;;;;;;5013805;28;20454;-57
2023/07/16 01:58:10;;;;;;;4.83;4.43;;;;;;;;;;5013393;28;20997;-57
2023/07/16 02:00:37;;;;;;;4.77;4.37;;;;;;;;;;5013687;28;20496;-58
2023/07/16 02:03:04;;;;;;;4.23;3.93;;;;;;;;;;5013515;28;20541;-57
2023/07/16 02:05:33;;;;;;;5.47;4.10;;;;;;;;;;5013461;28;20511;-57
2023/07/16 02:08:00;;;;;;;4.40;4.10;;;;;;;;;;5013677;28;20545;-57
2023/07/16 02:10:27;;;;;;;3.90;3.60;;;;;;;;;;5013584;28;20445;-56
2023/07/16 02:12:54;;;;;;;4.47;3.60;;;;;;;;;;5013412;28;20492;-58
2023/07/16 02:15:21;;;;;;;3.87;3.60;;;;;;;;;;5013423;28;20541;-58
2023/07/16 02:17:49;;;;;;;7.23;3.97;;;;;;;;;;5013476;28;20537;-58
2023/07/16 02:20:16;;;;;;;3.43;3.13;;;;;;;;;;5013282;28;20806;-57
2023/07/16 02:22:44;;;;;;;4.50;2.60;;;;;;;;;;5013464;28;20446;-58
2023/07/16 02:25:11;;;;;;;3.30;3.07;;;;;;;;;;5013401;28;20482;-58
2023/07/16 02:27:38;;;;;;;3.30;3.00;;;;;;;;;;5013368;28;20553;-58
2023/07/16 02:30:06;;;;;;;3.30;3.10;;;;;;;;;;5013170;28;20451;-57
2023/07/16 02:32:33;;;;;;;2.87;2.67;;;;;;;;;;5013055;28;20481;-58
2023/07/16 02:35:00;;;;;;;3.70;3.30;;;;;;;;;;5013081;28;20538;-57
2023/07/16 02:37:27;;;;;;;3.03;2.73;;;;;;;;;;5013334;28;20863;-58
2023/07/16 02:39:55;;;;;;;3.70;2.63;;;;;;;;;;5013184;28;20454;-57
2023/07/16 02:42:23;;;;;;;3.10;2.43;;;;;;;;;;5013072;28;20958;-58
2023/07/16 02:44:50;;;;;;;3.43;1.90;;;;;;;;;;5013074;28;20823;-58
2023/07/16 02:47:17;;;;;;;1.97;1.53;;;;;;;;;;5012995;28;20451;-58
2023/07/16 02:49:44;;;;;;;1.70;1.60;;;;;;;;;;5013224;28;20537;-57
2023/07/16 02:52:11;;;;;;;1.70;1.60;;;;;;;;;;5013078;28;20474;-59
2023/07/16 02:54:38;;;;;;;4.97;1.90;;;;;;;;;;5013108;28;20875;-58
2023/07/16 02:57:07;;;;;;;3.50;1.60;;;;;;;;;;5012893;28;20482;-58
2023/07/16 02:59:34;;;;;;;1.70;1.50;;;;;;;;;;5012982;28;20815;-58
2023/07/16 03:02:01;;;;;;;2.83;1.90;;;;;;;;;;5014308;28;20459;-57
2023/07/16 03:04:28;;;;;;;2.43;1.97;;;;;;;;;;5016841;28;20461;-56
2023/07/16 03:06:55;;;;;;;1.57;1.30;;;;;;;;;;5016879;28;20550;-58
2023/07/16 03:09:22;;;;;;;2.37;1.80;;;;;;;;;;5016778;28;20530;-58
2023/07/16 03:11:48;;;;;;;1.90;1.80;;;;;;;;;;5016689;28;20492;-58
2023/07/16 03:14:17;;;;;;;2.13;2.03;;;;;;;;;;5016628;28;20805;-58
2023/07/16 03:16:44;;;;;;;1.70;1.60;;;;;;;;;;5016820;28;20451;-57
2023/07/16 03:19:11;;;;;;;1.70;1.50;;;;;;;;;;5016555;28;21018;-57
2023/07/16 03:21:38;;;;;;;1.93;1.77;;;;;;;;;;5016614;28;20545;-58
2023/07/16 03:24:05;;;;;;;2.40;2.20;;;;;;;;;;5016494;28;20454;-57
2023/07/16 03:26:32;;;;;;;2.67;2.47;;;;;;;;;;5016460;28;20450;-58
2023/07/16 03:28:59;;;;;;;2.50;2.10;;;;;;;;;;5016330;28;20541;-58
2023/07/16 03:31:27;;;;;;;2.33;2.23;;;;;;;;;;5016287;28;20976;-57
2023/07/16 03:33:54;;;;;;;2.27;2.17;;;;;;;;;;5016361;28;20495;-58
2023/07/16 03:36:21;;;;;;;2.20;2.10;;;;;;;;;;5016368;28;20454;-58
2023/07/16 03:38:48;;;;;;;2.57;2.37;;;;;;;;;;5016306;28;20885;-57
2023/07/16 03:41:15;;;;;;;2.30;2.20;;;;;;;;;;5016111;28;20464;-59
2023/07/16 03:43:42;;;;;;;2.83;2.63;;;;;;;;;;5016043;28;20549;-57
2023/07/16 03:46:08;;;;;;;3.90;2.80;;;;;;;;;;5016275;28;20481;-57
2023/07/16 03:48:37;;;;;;;2.87;2.67;;;;;;;;;;5016150;28;20538;-58
2023/07/16 03:51:04;;;;;;;12.87;2.87;;;;;;;;;;5016069;28;20784;-57
2023/07/16 03:53:31;;;;;;;2.97;2.77;;;;;;;;;;5015792;28;21071;-57
2023/07/16 03:55:58;;;;;;;8.00;3.33;;;;;;;;;;5015661;28;20550;-58
2023/07/16 03:58:27;;;;;;;3.37;2.70;;;;;;;;;;5016137;28;20541;-58
2023/07/16 04:00:54;;;;;;;4.03;3.63;;;;;;;;;;5015973;28;20454;-59
2023/07/16 04:03:21;;;;;;;3.33;2.70;;;;;;;;;;5015821;28;20481;-58
2023/07/16 04:05:49;;;;;;;3.27;2.97;;;;;;;;;;5015755;28;20810;-57
2023/07/16 04:08:16;;;;;;;3.57;3.37;;;;;;;;;;5015543;28;20481;-58
2023/07/16 04:10:43;;;;;;;3.63;3.30;;;;;;;;;;5015531;28;20447;-57
2023/07/16 04:13:10;;;;;;;7.00;4.00;;;;;;;;;;5014302;28;20491;-57
2023/07/16 04:15:37;;;;;;;3.60;3.20;;;;;;;;;;5015670;28;20542;-58
2023/07/16 04:18:04;;;;;;;4.70;3.00;;;;;;;;;;5015556;28;20532;-57
2023/07/16 04:20:33;;;;;;;4.07;3.20;;;;;;;;;;5015470;28;20450;-57
2023/07/16 04:23:01;;;;;;;3.90;3.43;;;;;;;;;;5015368;28;20547;-58
2023/07/16 04:25:28;;;;;;;4.50;3.57;;;;;;;;;;5015517;28;20538;-58
2023/07/16 04:27:55;;;;;;;4.10;3.80;;;;;;;;;;5015679;28;20454;-58
2023/07/16 04:30:22;;;;;;;4.03;3.77;;;;;;;;;;5015335;28;20485;-57
2023/07/16 04:32:49;;;;;;;3.13;2.90;;;;;;;;;;5015212;28;20509;-57
2023/07/16 04:35:16;;;;;;;3.60;3.40;;;;;;;;;;5015230;28;20545;-57
2023/07/16 04:37:43;;;;;;;7.53;4.10;;;;;;;;;;5014999;28;20562;-58
2023/07/16 04:40:12;;;;;;;5.53;4.20;;;;;;;;;;5015271;28;20538;-57
2023/07/16 04:42:39;;;;;;;4.07;3.73;;;;;;;;;;5015164;28;20458;-58
2023/07/16 04:45:06;;;;;;;3.83;3.63;;;;;;;;;;5015023;28;20541;-57
2023/07/16 04:47:33;;;;;;;4.30;3.90;;;;;;;;;;5014960;28;20450;-57
2023/07/16 04:50:00;;;;;;;4.50;4.20;;;;;;;;;;5014784;28;20451;-57
2023/07/16 04:52:27;;;;;;;4.20;3.80;;;;;;;;;;5014723;28;20609;-57
2023/07/16 04:54:54;;;;;;;4.40;4.00;;;;;;;;;;5014937;28;20818;-57
2023/07/16 04:57:22;;;;;;;5.10;3.63;;;;;;;;;;5014672;28;20558;-57
2023/07/16 04:59:49;;;;;;;3.90;3.60;;;;;;;;;;5014845;28;21016;-57
2023/07/16 05:02:17;;;;;;;3.30;3.00;;;;;;;;;;5014688;28;20443;-57
2023/07/16 05:04:47;;;;;;;4.03;3.83;;;;;;;;;;5014569;28;20446;-57
2023/07/16 05:07:14;;;;;;;4.00;3.70;;;;;;;;;;5014815;28;20815;-57
2023/07/16 05:09:41;;;;;;;3.90;3.70;;;;;;;;;;5014713;28;20457;-58
2023/07/16 05:12:08;;;;;;;3.80;3.60;;;;;;;;;;5014587;28;20452;-57
2023/07/16 05:14:44;;;;;;;4.00;3.70;;;;;;;;;;5014413;28;20985;-57
2023/07/16 05:17:11;;;;;;;4.53;3.70;;;;;;;;;;5014400;28;20457;-57
2023/07/16 05:19:38;;;;;;;5.70;3.90;;;;;;;;;;5014481;28;20859;-57
2023/07/16 05:22:05;;;;;;;4.80;3.93;;;;;;;;;;5014475;28;20457;-58
2023/07/16 05:24:32;;;;;;;3.93;3.63;;;;;;;;;;5013929;28;20760;-57
2023/07/16 05:26:59;;;;;;;4.00;3.67;;;;;;;;;;5014270;28;20450;-57
2023/07/16 05:29:26;;;;;;;4.13;3.63;;;;;;;;;;5014177;28;20480;-57
2023/07/16 05:31:55;;;;;;;3.37;3.17;;;;;;;;;;5014050;28;20458;-57
2023/07/16 05:34:21;;;;;;;3.70;3.23;;;;;;;;;;5013918;28;20482;-57
2023/07/16 05:36:48;;;;;;;3.50;3.30;;;;;;;;;;5014081;28;20457;-57
2023/07/16 05:39:15;;;;;;;3.50;3.30;;;;;;;;;;5014110;28;20545;-57
2023/07/16 05:41:42;;;;;;;3.70;3.40;;;;;;;;;;5013945;28;20541;-57
2023/07/16 05:44:09;;;;;;;3.90;3.43;;;;;;;;;;5013952;28;20457;-59
2023/07/16 05:46:36;;;;;;;3.57;3.37;;;;;;;;;;5013854;28;20548;-57
2023/07/16 05:49:04;;;;;;;3.00;2.80;;;;;;;;;;5014003;28;20443;-58
2023/07/16 05:51:31;;;;;;;4.70;3.53;;;;;;;;;;5013963;28;20553;-58
2023/07/16 05:53:58;;;;;;;3.33;2.90;;;;;;;;;;5013731;28;20490;-57
2023/07/16 05:56:26;;;;;;;2.73;2.63;;;;;;;;;;5013555;28;20478;-58
2023/07/16 05:58:52;;;;;;;3.40;3.20;;;;;;;;;;5013650;28;20854;-57
2023/07/16 06:01:19;;;;;;;3.63;3.00;;;;;;;;;;5013851;28;20442;-58
2023/07/16 06:03:46;;;;;;;3.33;3.13;;;;;;;;;;5013738;28;20451;-56
2023/07/16 06:06:15;;;;;;;3.07;2.77;;;;;;;;;;5013640;28;20450;-57
2023/07/16 06:08:41;;;;;;;3.20;3.00;;;;;;;;;;5013588;28;20465;-58
2023/07/16 06:11:09;;;;;;;3.20;3.00;;;;;;;;;;5013491;28;20546;-58
2023/07/16 06:13:36;;;;;;;2.87;2.67;;;;;;;;;;5013296;28;20933;-58
2023/07/16 06:16:03;;;;;;;3.10;2.77;;;;;;;;;;5013473;28;20465;-57
2023/07/16 06:18:29;;;;;;;3.40;2.87;;;;;;;;;;5013477;28;20450;-58
2023/07/16 06:20:56;;;;;;;2.50;2.33;;;;;;;;;;5013485;28;20454;-57
2023/07/16 06:23:25;;;;;;;3.20;3.00;;;;;;;;;;5013339;28;20878;-58
2023/07/16 06:25:55;;;;;;;5.40;2.43;;;;;;;;;;5013261;28;20458;-59
2023/07/16 06:28:22;;;;;;;5.63;2.67;;;;;;;;;;5013365;28;20525;-58
2023/07/16 06:30:49;;;;;;;2.87;2.60;;;;;;;;;;5013327;28;20482;-58
2023/07/16 06:33:16;;;;;;;3.07;2.87;;;;;;;;;;5013213;28;20484;-58
2023/07/16 06:35:45;;;;;;;3.20;2.90;;;;;;;;;;5012853;28;20451;-57
2023/07/16 06:38:12;;;;;;;3.10;2.80;;;;;;;;;;5012758;28;20496;-58
2023/07/16 06:40:41;;;;;;;2.47;2.27;;;;;;;;;;5012839;28;20457;-57
2023/07/16 06:43:07;;;;;;;4.97;2.73;;;;;;;;;;5013316;28;20450;-58
2023/07/16 06:45:34;;;;;;;2.90;2.67;;;;;;;;;;5013214;28;20577;-58
2023/07/16 06:48:01;;;;;;;2.50;2.40;;;;;;;;;;5013090;28;20456;-58
2023/07/16 06:50:28;;;;;;;3.70;2.37;;;;;;;;;;5013089;28;20451;-57
2023/07/16 06:52:55;;;;;;;3.00;2.37;;;;;;;;;;5012954;28;20542;-59
2023/07/16 06:55:22;;;;;;;2.50;2.33;;;;;;;;;;5012984;28;20881;-57
2023/07/16 06:57:50;;;;;;;3.20;3.00;;;;;;;;;;5012870;28;20496;-58
2023/07/16 07:00:17;;;;;;;4.23;3.20;;;;;;;;;;5013079;28;20457;-58
2023/07/16 07:02:44;;;;;;;2.50;2.30;;;;;;;;;;5013004;28;20450;-57
2023/07/16 07:05:11;;;;;;;4.50;2.53;;;;;;;;;;5012909;28;20554;-57
2023/07/16 07:07:38;;;;;;;3.40;2.33;;;;;;;;;;5012832;28;20454;-58
2023/07/16 07:10:06;;;;;;;2.57;2.47;;;;;;;;;;5013082;28;20451;-58
2023/07/16 07:12:37;;;;;;;2.73;2.53;;;;;;;;;;5012901;28;20451;-60
2023/07/16 07:15:05;;;;;;;2.77;2.57;;;;;;;;;;5012838;28;20580;-58
2023/07/16 07:17:32;;;;;;;2.47;2.27;;;;;;;;;;5012864;28;20875;-58
2023/07/16 07:19:59;;;;;;;2.70;2.50;;;;;;;;;;5013248;28;20450;-59
2023/07/16 07:22:26;;;;;;;3.03;2.60;;;;;;;;;;5012973;28;20453;-58
2023/07/16 07:24:53;;;;;;;2.63;2.43;;;;;;;;;;5012911;28;20461;-58
2023/07/16 07:27:20;;;;;;;2.70;2.50;;;;;;;;;;5012831;28;20447;-58
2023/07/16 07:29:51;;;;;;;2.80;2.60;;;;;;;;;;5012747;28;20819;-58
2023/07/16 07:32:19;;;;;;;3.50;2.43;;;;;;;;;;5012694;28;20451;-58
2023/07/16 07:34:46;;;;;;;2.77;2.53;;;;;;;;;;5012443;28;20573;-58
2023/07/16 07:37:14;;;;;;;2.53;2.33;;;;;;;;;;5012817;28;20821;-57
2023/07/16 07:39:41;;;;;;;4.03;2.33;;;;;;;;;;5012663;28;20516;-58
2023/07/16 07:42:09;;;;;;;2.80;2.60;;;;;;;;;;5012664;28;20557;-58
2023/07/16 07:44:36;;;;;;;2.20;2.10;;;;;;;;;;5012579;28;20459;-58
2023/07/16 07:47:03;;;;;;;2.90;2.70;;;;;;;;;;5012513;28;20889;-58
2023/07/16 07:49:32;;;;;;;2.67;2.23;;;;;;;;;;5015842;28;21188;-58
2023/07/16 07:51:59;;;;;;;3.57;2.40;;;;;;;;;;5016084;28;20456;-58
2023/07/16 07:54:26;;;;;;;2.77;2.57;;;;;;;;;;5015890;28;20577;-58
2023/07/16 07:56:53;;;;;;;3.73;2.33;;;;;;;;;;5015793;28;20504;-58
2023/07/16 07:59:20;;;;;;;2.43;2.17;;;;;;;;;;5015758;28;20954;-58
2023/07/16 08:01:47;;;;;;;3.20;2.40;;;;;;;;;;5015784;28;20447;-58
2023/07/16 08:04:14;;;;;;;3.00;2.30;;;;;;;;;;5015906;28;20456;-58
2023/07/16 08:06:43;;;;;;;3.03;2.23;;;;;;;;;;5015794;28;21117;-58
2023/07/16 08:09:10;;;;;;;2.80;2.60;;;;;;;;;;5015845;28;20449;-58
2023/07/16 08:11:37;;;;;;;2.43;2.23;;;;;;;;;;5015646;28;20449;-58
2023/07/16 08:14:04;;;;;;;2.50;2.30;;;;;;;;;;5015491;28;20480;-58
2023/07/16 08:16:31;;;;;;;2.70;2.50;;;;;;;;;;5015422;28;20446;-58
2023/07/16 08:18:58;;;;;;;2.17;2.07;;;;;;;;;;5015632;28;20450;-58
2023/07/16 08:21:24;;;;;;;4.20;2.17;;;;;;;;;;5015544;28;20810;-58
2023/07/16 08:23:53;;;;;;;3.00;2.77;;;;;;;;;;5015306;28;21039;-58
2023/07/16 08:26:20;;;;;;;2.97;2.70;;;;;;;;;;5015295;28;20457;-58
2023/07/16 08:28:47;;;;;;;2.60;2.30;;;;;;;;;;5015203;28;20451;-58
2023/07/16 08:31:14;;;;;;;2.10;2.00;;;;;;;;;;5015668;28;20455;-57
2023/07/16 08:33:41;;;;;;;2.80;2.37;;;;;;;;;;5015249;28;20477;-57
2023/07/16 08:36:08;;;;;;;4.80;2.60;;;;;;;;;;5015398;28;20468;-58
2023/07/16 08:38:35;;;;;;;2.00;1.90;;;;;;;;;;5015151;28;20877;-57
2023/07/16 08:41:03;;;;;;;2.53;2.20;;;;;;;;;;5015077;28;20454;-57
2023/07/16 08:43:31;;;;;;;2.07;1.87;;;;;;;;;;5014937;28;20542;-57
2023/07/16 08:45:58;;;;;;;3.20;2.20;;;;;;;;;;5014980;28;20453;-57
2023/07/16 08:48:25;;;;;;;2.10;1.90;;;;;;;;;;5015007;28;20453;-58
2023/07/16 08:50:52;;;;;;;3.10;2.40;;;;;;;;;;5014874;28;20549;-57
2023/07/16 08:53:20;;;;;;;2.10;1.90;;;;;;;;;;5014794;28;20877;-57
2023/07/16 08:55:47;;;;;;;2.50;2.00;;;;;;;;;;5014575;28;20488;-58
2023/07/16 08:58:16;;;;;;;1.53;1.43;;;;;;;;;;5014663;28;20546;-57
2023/07/16 09:00:43;;;;;;;1.53;1.43;;;;;;;;;;5014054;28;20450;-57
2023/07/16 09:03:12;;;;;;;2.73;1.33;;;;;;;;;;5014649;28;20451;-59
2023/07/16 09:05:38;;;;;;;6.60;2.17;;;;;;;;;;5014547;28;20621;-57
2023/07/16 09:08:06;;;;;;;1.40;1.30;;;;;;;;;;5014484;28;20545;-57
2023/07/16 09:10:33;;;;;;;2.67;1.67;;;;;;;;;;5014333;28;20520;-57
2023/07/16 09:13:00;;;;;;;1.90;1.60;;;;;;;;;;5014418;28;20461;-57
2023/07/16 09:15:30;;;;;;;6.63;1.80;;;;;;;;;;5014436;28;20541;-57
2023/07/16 09:17:57;;;;;;;2.37;1.57;;;;;;;;;;5014519;28;20551;-57
2023/07/16 09:20:24;;;;;;;2.03;1.67;;;;;;;;;;5014361;28;20450;-57
2023/07/16 09:22:51;;;;;;;2.37;2.17;;;;;;;;;;5014317;28;20466;-58
2023/07/16 09:25:18;;;;;;;3.80;1.77;;;;;;;;;;5014115;28;20451;-58
2023/07/16 09:27:45;;;;;;;2.77;1.83;;;;;;;;;;5014131;28;20454;-58
2023/07/16 09:30:16;;;;;;;1.80;1.70;;;;;;;;;;5014234;28;20455;-58
2023/07/16 09:32:45;;;;;;;2.40;2.20;;;;;;;;;;5014175;28;20454;-58
2023/07/16 09:35:13;;;;;;;4.40;2.17;;;;;;;;;;5014053;28;20513;-57
2023/07/16 09:37:40;;;;;;;2.20;1.90;;;;;;;;;;5013865;28;20457;-57
2023/07/16 09:40:09;;;;;;;1.60;1.50;;;;;;;;;;5014161;28;20546;-58
2023/07/16 09:42:38;;;;;;;2.37;2.07;;;;;;;;;;5014020;28;20847;-58
2023/07/16 09:45:06;;;;;;;2.97;2.10;;;;;;;;;;5013884;28;20907;-58
2023/07/16 09:47:33;;;;;;;2.00;1.90;;;;;;;;;;5013747;28;20518;-57
2023/07/16 09:50:02;;;;;;;2.83;1.47;;;;;;;;;;5013762;28;20545;-57
2023/07/16 09:52:29;;;;;;;1.80;1.47;;;;;;;;;;5013886;28;20478;-58
2023/07/16 09:54:57;;;;;;;2.00;1.90;;;;;;;;;;5013749;28;20560;-57
2023/07/16 09:57:26;;;;;;;4.57;1.60;;;;;;;;;;5013489;28;20517;-57
2023/07/16 09:59:54;;;;;;;1.83;1.73;;;;;;;;;;5013735;28;20561;-57
2023/07/16 10:02:21;;;;;;;1.60;1.50;;;;;;;;;;5013481;28;20965;-57
2023/07/16 10:04:48;;;;;;;2.93;1.90;;;;;;;;;;5013388;28;20450;-57
2023/07/16 10:07:26;;;;;;;2.00;1.67;;;;;;;;;;5013672;28;20461;-57
2023/07/16 10:09:55;;;;;;;1.37;1.27;;;;;;;;;;5013601;28;20450;-57
2023/07/16 10:12:22;;;;;;;1.80;1.70;;;;;;;;;;5013393;28;20796;-57
2023/07/16 10:14:50;;;;;;;4.00;2.17;;;;;;;;;;5013415;28;20508;-57
2023/07/16 10:17:18;;;;;;;5.00;2.10;;;;;;;;;;5013269;28;20942;-57
2023/07/16 10:19:49;;;;;;;2.07;1.73;;;;;;;;;;5013564;28;20446;-57
2023/07/16 10:22:16;;;;;;;3.40;1.90;;;;;;;;;;5013433;28;20452;-57
2023/07/16 10:24:44;;;;;;;2.33;1.90;;;;;;;;;;5013392;28;20481;-58
2023/07/16 10:27:14;;;;;;;2.57;1.90;;;;;;;;;;5013295;28;20462;-57
2023/07/16 10:29:41;;;;;;;1.80;1.70;;;;;;;;;;5013055;28;20489;-58
2023/07/16 10:32:08;;;;;;;3.20;2.73;;;;;;;;;;5013464;28;20508;-59
2023/07/16 10:34:36;;;;;;;2.10;1.90;;;;;;;;;;5013162;28;20471;-58
2023/07/16 10:37:04;;;;;;;4.83;1.93;;;;;;;;;;5013222;28;20454;-59
2023/07/16 10:39:31;;;;;;;2.00;1.90;;;;;;;;;;5013175;28;20454;-59
2023/07/16 10:41:59;;;;;;;4.33;1.97;;;;;;;;;;5013119;28;20810;-58
2023/07/16 10:44:27;;;;;;;2.23;2.03;;;;;;;;;;5012942;28;20953;-58
2023/07/16 10:46:55;;;;;;;2.83;2.50;;;;;;;;;;5013020;28;20964;-59
2023/07/16 10:49:28;;;;;;;2.20;2.00;;;;;;;;;;5013175;28;20667;-59
2023/07/16 10:51:55;;;;;;;5.50;2.10;;;;;;;;;;5013108;28;20455;-58
2023/07/16 10:54:23;;;;;;;2.03;1.83;;;;;;;;;;5012913;28;20488;-58
2023/07/16 10:56:51;;;;;;;4.47;2.10;;;;;;;;;;5012595;28;20564;-59
2023/07/16 10:59:19;;;;;;;2.23;2.03;;;;;;;;;;5013059;28;20802;-58
2023/07/16 11:01:47;;;;;;;5.40;2.27;;;;;;;;;;5012903;28;20450;-59
2023/07/16 11:04:14;;;;;;;2.73;1.97;;;;;;;;;;5012977;28;20472;-58
2023/07/16 11:06:41;;;;;;;4.53;2.00;;;;;;;;;;5012848;28;20802;-59
2023/07/16 11:09:08;;;;;;;1.93;1.80;;;;;;;;;;5012844;28;20447;-58
2023/07/16 11:11:35;;;;;;;2.20;2.00;;;;;;;;;;5012811;28;20780;-59
2023/07/16 11:14:04;;;;;;;7.60;2.47;;;;;;;;;;5013068;28;20453;-58
2023/07/16 11:16:36;;;;;;;2.27;2.07;;;;;;;;;;5012776;28;20482;-58
2023/07/16 11:19:03;;;;;;;2.33;1.97;;;;;;;;;;5012794;28;20545;-58
2023/07/16 11:21:30;;;;;;;3.07;2.00;;;;;;;;;;5012703;28;20541;-58
2023/07/16 11:23:57;;;;;;;2.50;2.30;;;;;;;;;;5015460;28;20450;-58
2023/07/16 11:26:24;;;;;;;2.70;2.17;;;;;;;;;;5016654;28;20814;-58
2023/07/16 11:28:52;;;;;;;2.13;1.70;;;;;;;;;;5016537;28;20451;-59
2023/07/16 11:31:19;;;;;;;2.17;1.73;;;;;;;;;;5016508;28;20457;-58
2023/07/16 11:33:47;;;;;;;1.70;1.60;;;;;;;;;;5016352;28;20454;-58
2023/07/16 11:36:15;;;;;;;2.17;1.97;;;;;;;;;;5016186;28;20833;-60
2023/07/16 11:38:42;;;;;;;2.20;2.00;;;;;;;;;;5016274;28;20541;-58
2023/07/16 11:41:09;;;;;;;2.13;1.83;;;;;;;;;;5016272;28;20784;-58
2023/07/16 11:43:36;;;;;;;3.73;2.60;;;;;;;;;;5016066;28;21009;-59
2023/07/16 11:46:03;;;;;;;2.20;1.87;;;;;;;;;;5016198;28;20462;-58
2023/07/16 11:48:30;;;;;;;5.27;1.87;;;;;;;;;;5016053;28;20450;-59
2023/07/16 11:50:58;;;;;;;2.30;2.10;;;;;;;;;;5015940;28;20975;-59
2023/07/16 11:53:26;;;;;;;2.57;1.80;;;;;;;;;;5016116;28;20447;-58
2023/07/16 11:55:53;;;;;;;2.57;1.70;;;;;;;;;;5015817;28;20842;-60
2023/07/16 11:58:20;;;;;;;4.93;2.00;;;;;;;;;;5015908;28;20454;-58
2023/07/16 12:00:47;;;;;;;2.10;2.00;;;;;;;;;;5015931;28;20450;-58
2023/07/16 12:03:14;;;;;;;1.60;1.50;;;;;;;;;;5015751;28;20455;-58
2023/07/16 12:05:41;;;;;;;2.53;2.20;;;;;;;;;;5015597;28;20457;-58
2023/07/16 12:08:13;;;;;;;3.00;2.17;;;;;;;;;;5015830;28;20476;-58
2023/07/16 12:10:40;;;;;;;3.47;2.70;;;;;;;;;;5015780;28;20458;-58
2023/07/16 12:13:07;;;;;;;2.27;1.73;;;;;;;;;;5015632;28;20458;-58
2023/07/16 12:15:34;;;;;;;1.67;1.40;;;;;;;;;;5015555;28;20486;-58
2023/07/16 12:18:01;;;;;;;2.20;1.70;;;;;;;;;;5015453;28;20460;-58
2023/07/16 12:20:28;;;;;;;2.60;1.40;;;;;;;;;;5015626;28;20486;-58
2023/07/16 12:22:55;;;;;;;2.73;1.87;;;;;;;;;;5015598;28;20447;-58
2023/07/16 12:25:23;;;;;;;2.97;1.87;;;;;;;;;;5015409;28;20542;-58
2023/07/16 12:27:50;;;;;;;3.20;1.57;;;;;;;;;;5015466;28;20902;-58
2023/07/16 12:30:17;;;;;;;1.60;1.50;;;;;;;;;;5015297;28;20498;-58
2023/07/16 12:32:44;;;;;;;2.60;1.80;;;;;;;;;;5015152;28;20455;-58
2023/07/16 12:35:11;;;;;;;3.07;1.40;;;;;;;;;;5014219;28;20566;-59
2023/07/16 12:37:38;;;;;;;2.23;2.03;;;;;;;;;;5015161;28;20455;-59
2023/07/16 12:40:06;;;;;;;2.10;2.00;;;;;;;;;;5015144;28;21033;-59
2023/07/16 12:42:34;;;;;;;2.30;1.67;;;;;;;;;;5015035;28;20489;-58
2023/07/16 12:45:02;;;;;;;2.10;1.97;;;;;;;;;;5015021;28;20449;-59
2023/07/16 12:47:29;;;;;;;6.47;5.87;;;;;;;;;;5015167;28;20451;-58
2023/07/16 12:49:56;;;;;;;1.90;1.70;;;;;;;;;;5014996;28;20453;-58
2023/07/16 12:52:23;;;;;;;1.77;1.67;;;;;;;;;;5015007;28;20453;-58
2023/07/16 12:54:50;;;;;;;2.23;1.83;;;;;;;;;;5014777;28;20447;-58
2023/07/16 12:57:18;;;;;;;2.33;1.80;;;;;;;;;;5014409;28;20480;-58
2023/07/16 12:59:47;;;;;;;2.93;1.50;;;;;;;;;;5014610;28;20981;-59
2023/07/16 13:02:14;;;;;;;2.90;2.20;;;;;;;;;;5014594;28;20454;-57
2023/07/16 13:04:40;;;;;;;2.27;1.80;;;;;;;;;;5014762;28;20490;-58
2023/07/16 13:07:08;;;;;;;2.80;1.70;;;;;;;;;;5014586;28;20469;-57
2023/07/16 13:09:35;;;;;;;2.03;1.60;;;;;;;;;;5014548;28;20920;-57
2023/07/16 13:12:02;;;;;;;3.43;2.27;;;;;;;;;;5014497;28;20557;-57
2023/07/16 13:14:29;;;;;;;3.73;1.47;;;;;;;;;;5014237;28;20458;-57
2023/07/16 13:16:58;;;;;;;2.53;1.60;;;;;;;;;;5014700;28;20822;-57
2023/07/16 13:19:25;;;;;;;1.77;1.67;;;;;;;;;;5014331;28;20450;-57
2023/07/16 13:21:51;;;;;;;2.20;2.10;;;;;;;;;;5014455;28;20465;-57
2023/07/16 13:24:18;;;;;;;1.63;1.53;;;;;;;;;;5014244;28;20451;-57
2023/07/16 13:26:45;;;;;;;1.80;1.70;;;;;;;;;;5014160;28;20461;-57
2023/07/16 13:29:12;;;;;;;1.93;1.53;;;;;;;;;;5014347;28;20529;-58
2023/07/16 13:31:39;;;;;;;2.13;1.77;;;;;;;;;;5014345;28;20454;-58
2023/07/16 13:34:07;;;;;;;4.80;1.90;;;;;;;;;;5014163;28;20450;-58
2023/07/16 13:36:34;;;;;;;2.10;1.90;;;;;;;;;;5013948;28;20989;-58
2023/07/16 13:39:02;;;;;;;2.00;1.37;;;;;;;;;;5013962;28;20454;-58
2023/07/16 13:41:29;;;;;;;1.70;1.43;;;;;;;;;;5013847;28;20974;-58
2023/07/16 13:43:56;;;;;;;3.27;1.50;;;;;;;;;;5014161;28;20451;-58
2023/07/16 13:46:23;;;;;;;1.70;1.60;;;;;;;;;;5013579;28;20457;-58
2023/07/16 13:48:50;;;;;;;3.47;1.40;;;;;;;;;;5013958;28;20450;-58
2023/07/16 13:51:18;;;;;;;2.03;1.70;;;;;;;;;;5013851;28;20553;-58
2023/07/16 13:53:45;;;;;;;1.43;1.33;;;;;;;;;;5013689;28;20457;-59
2023/07/16 13:56:12;;;;;;;2.20;1.87;;;;;;;;;;5013329;28;20493;-58
2023/07/16 13:58:39;;;;;;;2.10;1.27;;;;;;;;;;5013701;28;20447;-58
2023/07/16 14:01:06;;;;;;;2.40;1.70;;;;;;;;;;5013679;28;20549;-58
2023/07/16 14:03:33;;;;;;;3.30;1.87;;;;;;;;;;5013706;28;20461;-58
2023/07/16 14:06:00;;;;;;;3.03;1.47;;;;;;;;;;5013616;28;20459;-58
2023/07/16 14:08:28;;;;;;;2.33;1.77;;;;;;;;;;5013387;28;20946;-58
2023/07/16 14:10:55;;;;;;;2.87;1.60;;;;;;;;;;5013572;28;20462;-58
2023/07/16 14:13:22;;;;;;;1.63;1.53;;;;;;;;;;5013575;28;20477;-58
2023/07/16 14:15:49;;;;;;;1.40;1.30;;;;;;;;;;5013452;28;20906;-58
2023/07/16 14:18:16;;;;;;;2.57;1.50;;;;;;;;;;5013443;28;20450;-58
2023/07/16 14:20:43;;;;;;;3.50;2.10;;;;;;;;;;5013352;28;20545;-58
2023/07/16 14:23:10;;;;;;;1.93;1.40;;;;;;;;;;5013256;28;20450;-58
2023/07/16 14:25:38;;;;;;;1.70;1.60;;;;;;;;;;5013482;28;20461;-58
2023/07/16 14:28:05;;;;;;;2.73;2.23;;;;;;;;;;5013322;28;20862;-58
2023/07/16 14:30:32;;;;;;;1.93;1.37;;;;;;;;;;5013364;28;20689;-58
2023/07/16 14:33:01;;;;;;;1.70;1.60;;;;;;;;;;5013278;28;20457;-59
2023/07/16 14:35:28;;;;;;;1.50;1.40;;;;;;;;;;5012982;28;20453;-58
2023/07/16 14:37:55;;;;;;;3.37;1.60;;;;;;;;;;5013425;28;20453;-58
2023/07/16 14:40:22;;;;;;;1.47;1.30;;;;;;;;;;5013304;28;20626;-58
2023/07/16 14:42:50;;;;;;;3.67;1.50;;;;;;;;;;5013208;28;20810;-57
2023/07/16 14:45:17;;;;;;;2.60;1.50;;;;;;;;;;5012997;28;20470;-57